createdAt,value
2018-03-17T00:00:44.955Z,-1.10
2018-03-17T00:03:10.897Z,-1.00
2018-03-17T00:05:36.926Z,-1.10
2018-03-17T00:08:02.897Z,-1.00
2018-03-17T00:10:28.873Z,-1.10
2018-03-17T00:12:55.566Z,-1.10
2018-03-17T00:15:21.509Z,-1.10
2018-03-17T00:17:47.488Z,-1.30
2018-03-17T00:20:14.181Z,-1.30
2018-03-17T00:22:40.166Z,-1.30
2018-03-17T00:25:06.145Z,-1.40
2018-03-17T00:27:32.201Z,-1.40
2018-03-17T00:29:58.144Z,-1.60
2018-03-17T00:32:24.129Z,-1.40
2018-03-17T00:34:50.826Z,-1.30
2018-03-17T00:37:16.805Z,-1.30
2018-03-17T00:39:42.766Z,-1.40
2018-03-17T00:42:08.772Z,-1.50
2018-03-17T00:44:34.766Z,-1.50
2018-03-17T00:47:00.709Z,-1.40
2018-03-17T00:49:26.720Z,-1.40
2018-03-17T00:51:52.679Z,-1.20
2018-03-17T00:54:18.689Z,-1.10
2018-03-17T00:56:44.654Z,-1.40
2018-03-17T00:59:11.373Z,-1.40
2018-03-17T01:01:37.318Z,-1.40
2018-03-17T01:04:03.388Z,-1.30
2018-03-17T01:06:29.356Z,-1.40
2018-03-17T01:08:56.088Z,-1.40
2018-03-17T01:11:22.780Z,-1.30
2018-03-17T01:13:49.500Z,-1.30
2018-03-17T01:16:16.390Z,-1.30
2018-03-17T01:18:43.083Z,-1.30
2018-03-17T01:21:09.073Z,-1.30
2018-03-17T01:23:35.802Z,-1.30
2018-03-17T01:26:02.530Z,-1.40
2018-03-17T01:28:28.513Z,-1.40
2018-03-17T01:30:55.238Z,-1.50
2018-03-17T01:36:12.045Z,-1.50
2018-03-17T01:38:38.001Z,-1.50
2018-03-17T01:41:04.016Z,-1.50
2018-03-17T01:43:29.998Z,-1.50
2018-03-17T01:45:55.993Z,-1.60
2018-03-17T01:48:22.008Z,-1.60
2018-03-17T01:50:48.705Z,-1.40
2018-03-17T01:53:14.690Z,-1.40
2018-03-17T01:55:41.415Z,-1.30
2018-03-17T01:58:07.394Z,-1.30
2018-03-17T02:00:33.387Z,-1.50
2018-03-17T02:02:59.366Z,-1.60
2018-03-17T02:05:26.066Z,-1.70
2018-03-17T02:07:52.070Z,-1.70
2018-03-17T02:10:18.025Z,-1.70
2018-03-17T02:12:43.990Z,-1.70
2018-03-17T02:15:09.978Z,-1.90
2018-03-17T02:17:35.994Z,-2.00
2018-03-17T02:20:02.758Z,-1.80
2018-03-17T02:22:28.708Z,-1.90
2018-03-17T02:24:54.685Z,-1.80
2018-03-17T02:27:20.670Z,-2.00
2018-03-17T02:29:46.641Z,-2.00
2018-03-17T02:32:12.628Z,-2.00
2018-03-17T02:34:39.349Z,-1.90
2018-03-17T02:37:05.690Z,-2.00
2018-03-17T02:39:32.457Z,-1.80
2018-03-17T02:41:59.164Z,-1.90
2018-03-17T02:44:25.122Z,-1.90
2018-03-17T02:46:51.132Z,-1.80
2018-03-17T02:49:17.097Z,-1.80
2018-03-17T02:51:43.054Z,-1.80
2018-03-17T02:54:09.058Z,-1.80
2018-03-17T02:56:35.098Z,-1.80
2018-03-17T02:59:01.100Z,-1.70
2018-03-17T03:01:27.062Z,-1.80
2018-03-17T03:03:53.017Z,-1.50
2018-03-17T03:06:18.990Z,-1.60
2018-03-17T03:08:45.687Z,-1.80
2018-03-17T03:11:11.669Z,-1.80
2018-03-17T03:13:37.781Z,-2.10
2018-03-17T03:16:03.799Z,-2.10
2018-03-17T03:18:29.754Z,-2.30
2018-03-17T03:20:55.714Z,-2.40
2018-03-17T03:23:21.693Z,-2.40
2018-03-17T03:25:47.649Z,-2.60
2018-03-17T03:28:13.763Z,-2.60
2018-03-17T03:30:39.727Z,-2.80
2018-03-17T03:33:05.748Z,-2.70
2018-03-17T03:35:31.769Z,-2.70
2018-03-17T03:37:57.749Z,-2.40
2018-03-17T03:40:23.693Z,-2.50
2018-03-17T03:42:49.688Z,-2.60
2018-03-17T03:45:15.685Z,-2.60
2018-03-17T03:47:42.381Z,-2.60
2018-03-17T03:50:08.329Z,-2.70
2018-03-17T03:52:34.381Z,-2.70
2018-03-17T03:55:00.341Z,-2.70
2018-03-17T03:57:26.313Z,-2.80
2018-03-17T03:59:52.309Z,-2.60
2018-03-17T04:02:18.290Z,-2.50
2018-03-17T04:04:44.237Z,-2.70
2018-03-17T04:07:10.245Z,-3.10
2018-03-17T04:09:36.965Z,-3.10
2018-03-17T04:12:02.945Z,-3.20
2018-03-17T04:14:28.929Z,-3.40
2018-03-17T04:16:54.888Z,-3.40
2018-03-17T04:19:21.633Z,-3.20
2018-03-17T04:21:47.630Z,-3.20
2018-03-17T04:24:13.598Z,-3.40
2018-03-17T04:26:39.601Z,-3.40
2018-03-17T04:29:05.594Z,-3.40
2018-03-17T04:31:32.341Z,-3.40
2018-03-17T04:33:59.034Z,-3.50
2018-03-17T04:36:24.987Z,-3.50
2018-03-17T04:38:50.965Z,-3.30
2018-03-17T04:41:17.649Z,-3.30
2018-03-17T04:43:43.629Z,-3.30
2018-03-17T04:46:09.609Z,-3.40
2018-03-17T04:48:35.584Z,-3.20
2018-03-17T04:51:01.622Z,-3.40
2018-03-17T04:53:27.598Z,-3.40
2018-03-17T04:55:54.305Z,-3.40
2018-03-17T04:58:20.324Z,-3.40
2018-03-17T05:00:46.269Z,-3.60
2018-03-17T05:03:12.219Z,-3.60
2018-03-17T05:05:38.210Z,-3.60
2018-03-17T05:08:04.981Z,-3.50
2018-03-17T05:10:30.945Z,-3.50
2018-03-17T05:12:56.896Z,-3.60
2018-03-17T05:15:22.881Z,-3.70
2018-03-17T05:17:48.853Z,-3.70
2018-03-17T05:20:14.805Z,-3.70
2018-03-17T05:22:40.786Z,-3.50
2018-03-17T05:25:06.730Z,-3.40
2018-03-17T05:27:32.734Z,-3.50
2018-03-17T05:29:59.450Z,-3.60
2018-03-17T05:32:25.437Z,-3.60
2018-03-17T05:34:52.169Z,-3.60
2018-03-17T05:37:18.127Z,-3.70
2018-03-17T05:39:44.871Z,-3.80
2018-03-17T05:42:11.564Z,-3.80
2018-03-17T05:44:37.541Z,-3.80
2018-03-17T05:47:03.538Z,-3.70
2018-03-17T05:49:29.486Z,-3.60
2018-03-17T05:51:55.469Z,-3.60
2018-03-17T05:54:22.233Z,-3.50
2018-03-17T05:56:48.193Z,-3.50
2018-03-17T05:59:14.197Z,-3.40
2018-03-17T06:01:40.893Z,-3.20
2018-03-17T06:04:06.885Z,-3.30
2018-03-17T06:06:33.589Z,-3.40
2018-03-17T06:08:59.557Z,-3.40
2018-03-17T06:11:26.289Z,-3.60
2018-03-17T06:13:52.250Z,-3.60
2018-03-17T06:16:19.043Z,-3.50
2018-03-17T06:18:45.001Z,-3.50
2018-03-17T06:21:10.982Z,-3.60
2018-03-17T06:23:37.705Z,-3.60
2018-03-17T06:26:03.722Z,-3.60
2018-03-17T06:28:29.689Z,-3.40
2018-03-17T06:30:55.681Z,-3.40
2018-03-17T06:33:21.641Z,-3.50
2018-03-17T06:35:47.642Z,-3.60
2018-03-17T06:38:13.622Z,-3.40
2018-03-17T06:40:39.617Z,-3.60
2018-03-17T06:43:05.658Z,-3.60
2018-03-17T06:45:31.621Z,-3.70
2018-03-17T06:47:57.617Z,-3.60
2018-03-17T06:50:23.570Z,-3.80
2018-03-17T06:52:49.568Z,-3.90
2018-03-17T06:55:16.358Z,-3.60
2018-03-17T06:57:42.321Z,-3.60
2018-03-17T07:00:08.312Z,-3.40
2018-03-17T07:02:34.334Z,-3.40
2018-03-17T07:05:00.307Z,-3.60
2018-03-17T07:07:26.301Z,-3.60
2018-03-17T07:09:52.995Z,-3.20
2018-03-17T07:12:19.042Z,-3.20
2018-03-17T07:14:44.958Z,-3.20
2018-03-17T07:17:10.938Z,-3.00
2018-03-17T07:19:36.890Z,-3.20
2018-03-17T07:22:02.924Z,-3.20
2018-03-17T07:24:28.855Z,-3.20
2018-03-17T07:26:54.854Z,-3.20
2018-03-17T07:29:20.855Z,-3.20
2018-03-17T07:31:46.804Z,-3.20
2018-03-17T07:34:12.778Z,-3.20
2018-03-17T07:36:38.736Z,-3.20
2018-03-17T07:39:04.761Z,-2.90
2018-03-17T07:41:30.742Z,-2.70
2018-03-17T07:43:56.737Z,-2.60
2018-03-17T07:46:22.702Z,-2.70
2018-03-17T07:48:49.447Z,-2.70
2018-03-17T07:51:16.224Z,-3.10
2018-03-17T07:53:42.193Z,-3.10
2018-03-17T07:56:08.181Z,-2.90
2018-03-17T07:58:34.945Z,-2.70
2018-03-17T08:01:00.929Z,-2.70
2018-03-17T08:03:27.137Z,-2.50
2018-03-17T08:05:53.093Z,-2.30
2018-03-17T08:08:19.097Z,-2.20
2018-03-17T08:10:45.085Z,-2.50
2018-03-17T08:13:11.074Z,-2.60
2018-03-17T08:15:37.085Z,-2.60
2018-03-17T08:18:03.875Z,-2.70
2018-03-17T08:26:16.420Z,-2.60
2018-03-17T08:28:42.739Z,-2.60
2018-03-17T08:31:08.761Z,-2.50
2018-03-17T08:33:34.765Z,-2.50
2018-03-17T08:36:00.723Z,-2.40
2018-03-17T08:38:26.704Z,-2.60
2018-03-17T08:40:52.654Z,-2.60
2018-03-17T08:43:19.437Z,-2.50
2018-03-17T08:45:45.375Z,-2.50
2018-03-17T08:48:11.398Z,-2.30
2018-03-17T08:50:37.394Z,-2.30
2018-03-17T08:53:03.343Z,-2.30
2018-03-17T08:55:29.315Z,-2.40
2018-03-17T08:57:55.354Z,-2.40
2018-03-17T09:00:22.009Z,-2.20
2018-03-17T09:02:48.020Z,-2.30
2018-03-17T09:05:14.060Z,-1.90
2018-03-17T09:07:40.028Z,-1.80
2018-03-17T09:10:06.013Z,-1.90
2018-03-17T09:12:32.702Z,-1.80
2018-03-17T09:14:58.677Z,-1.80
2018-03-17T09:17:24.640Z,-2.00
2018-03-17T09:19:50.618Z,-2.00
2018-03-17T09:22:19.617Z,-1.90
2018-03-17T09:24:45.601Z,-1.80
2018-03-17T09:27:11.569Z,-1.80
2018-03-17T09:29:37.655Z,-2.00
2018-03-17T09:32:03.581Z,-2.20
2018-03-17T09:34:29.525Z,-2.30
2018-03-17T09:36:55.523Z,-2.20
2018-03-17T09:39:21.468Z,-2.20
2018-03-17T09:41:47.452Z,-1.80
2018-03-17T09:44:13.464Z,-1.50
2018-03-17T09:46:39.417Z,-2.00
2018-03-17T09:49:05.479Z,-1.90
2018-03-17T09:51:32.183Z,-2.20
2018-03-17T09:53:58.168Z,-2.20
2018-03-17T09:56:24.864Z,-2.00
2018-03-17T09:58:50.857Z,-2.00
2018-03-17T10:01:17.547Z,-1.80
2018-03-17T10:03:43.535Z,-1.90
2018-03-17T10:06:09.521Z,-1.90
2018-03-17T10:08:35.468Z,-2.30
2018-03-17T10:11:01.497Z,-2.30
2018-03-17T10:13:27.492Z,-2.20
2018-03-17T10:15:54.181Z,-2.10
2018-03-17T10:18:20.210Z,-2.10
2018-03-17T10:20:46.884Z,-2.40
2018-03-17T10:23:12.948Z,-2.40
2018-03-17T10:25:38.901Z,-2.40
2018-03-17T10:28:05.616Z,-2.00
2018-03-17T10:30:31.564Z,-2.00
2018-03-17T10:32:57.536Z,-1.90
2018-03-17T10:35:24.276Z,-2.20
2018-03-17T10:37:50.217Z,-2.20
2018-03-17T10:40:16.949Z,-1.90
2018-03-17T10:42:42.989Z,-1.90
2018-03-17T10:45:09.743Z,-2.20
2018-03-17T10:47:35.809Z,-2.20
2018-03-17T10:50:02.501Z,-2.20
2018-03-17T10:52:28.543Z,-2.20
2018-03-17T10:54:54.496Z,-2.10
2018-03-17T10:57:20.501Z,-2.10
2018-03-17T10:59:46.477Z,-2.00
2018-03-17T11:02:12.464Z,-2.10
2018-03-17T11:04:38.444Z,-2.10
2018-03-17T11:07:04.431Z,-2.30
2018-03-17T11:09:30.413Z,-2.30
2018-03-17T11:11:56.408Z,-2.30
2018-03-17T11:14:22.364Z,-2.20
2018-03-17T11:16:48.378Z,-2.00
2018-03-17T11:19:15.077Z,-2.10
2018-03-17T11:21:41.109Z,-2.10
2018-03-17T11:24:07.060Z,-2.20
2018-03-17T11:26:33.001Z,-2.10
2018-03-17T11:28:58.990Z,-2.10
2018-03-17T11:31:24.961Z,-2.20
2018-03-17T11:33:51.008Z,-2.20
2018-03-17T11:36:16.988Z,-2.00
2018-03-17T11:38:43.001Z,-2.00
2018-03-17T11:41:09.746Z,-1.80
2018-03-17T11:43:36.443Z,-1.80
2018-03-17T11:46:02.460Z,-1.90
2018-03-17T11:48:28.396Z,-2.00
2018-03-17T11:50:54.476Z,-2.00
2018-03-17T11:53:20.453Z,-1.80
2018-03-17T11:55:47.139Z,-1.70
2018-03-17T11:58:13.157Z,-1.70
2018-03-17T12:00:39.129Z,-1.70
2018-03-17T12:03:05.076Z,-1.50
2018-03-17T12:05:31.069Z,-1.30
2018-03-17T12:07:57.104Z,-1.50
2018-03-17T12:10:23.069Z,-1.70
2018-03-17T12:12:49.050Z,-1.90
2018-03-17T12:15:15.117Z,-2.20
2018-03-17T12:17:41.119Z,-2.20
2018-03-17T12:20:07.108Z,-2.10
2018-03-17T12:22:33.054Z,-1.90
2018-03-17T12:24:59.073Z,-1.60
2018-03-17T12:27:25.012Z,-1.80
2018-03-17T12:29:51.290Z,-1.60
2018-03-17T12:32:17.245Z,-1.70
2018-03-17T12:34:43.259Z,-1.80
2018-03-17T12:37:09.204Z,-2.10
2018-03-17T12:39:35.197Z,-2.00
2018-03-17T12:42:01.149Z,-2.10
2018-03-17T12:44:27.110Z,-2.40
2018-03-17T12:46:53.093Z,-2.40
2018-03-17T12:49:19.045Z,-2.30
2018-03-17T12:51:45.049Z,-2.10
2018-03-17T12:54:11.785Z,-1.90
2018-03-17T12:56:37.769Z,-1.90
2018-03-17T12:59:03.722Z,-1.90
2018-03-17T13:01:29.701Z,-2.00
2018-03-17T13:03:56.461Z,-1.80
2018-03-17T13:06:23.188Z,-2.00
2018-03-17T13:08:49.234Z,-2.00
2018-03-17T13:11:15.251Z,-2.10
2018-03-17T13:13:41.456Z,-2.50
2018-03-17T13:16:07.445Z,-2.30
2018-03-17T13:18:33.484Z,-2.20
2018-03-17T13:20:59.456Z,-2.10
2018-03-17T13:23:25.421Z,-2.10
2018-03-17T13:25:51.361Z,-1.90
2018-03-17T13:28:25.517Z,-2.00
2018-03-17T13:30:51.577Z,-2.30
2018-03-17T13:33:18.324Z,-2.30
2018-03-17T13:35:57.524Z,-2.30
2018-03-17T13:38:23.480Z,-2.30
2018-03-17T13:40:49.411Z,-2.20
2018-03-17T13:43:15.424Z,-2.10
2018-03-17T13:45:41.430Z,-2.60
2018-03-17T13:48:07.426Z,-2.30
2018-03-17T13:50:33.444Z,-2.20
2018-03-17T13:52:59.448Z,-2.40
2018-03-17T13:55:25.492Z,-2.10
2018-03-17T13:57:51.530Z,-2.10
2018-03-17T14:00:17.565Z,-2.20
2018-03-17T14:02:43.577Z,-2.20
2018-03-17T14:05:10.333Z,-2.40
2018-03-17T14:07:37.048Z,-2.40
2018-03-17T14:10:03.058Z,-2.40
2018-03-17T14:12:29.209Z,-2.50
2018-03-17T14:14:55.147Z,-2.60
2018-03-17T14:17:21.148Z,-2.40
2018-03-17T14:19:47.099Z,-2.60
2018-03-17T14:22:13.268Z,-2.60
2018-03-17T14:24:39.967Z,-2.30
2018-03-17T14:27:06.793Z,-2.30
2018-03-17T14:29:33.505Z,-2.30
2018-03-17T14:31:59.501Z,-2.30
2018-03-17T14:34:25.485Z,-2.20
2018-03-17T14:36:51.473Z,-2.10
2018-03-17T14:39:17.477Z,-2.20
2018-03-17T14:41:43.504Z,-2.20
2018-03-17T14:44:09.532Z,-2.10
2018-03-17T14:46:35.513Z,-2.20
2018-03-17T14:49:01.494Z,-2.40
2018-03-17T14:51:27.539Z,-2.50
2018-03-17T14:53:53.527Z,-2.50
2018-03-17T14:56:19.519Z,-2.60
2018-03-17T14:58:45.516Z,-2.60
2018-03-17T15:01:12.249Z,-2.30
2018-03-17T15:03:39.031Z,-2.60
2018-03-17T15:06:05.016Z,-2.60
2018-03-17T15:08:31.007Z,-2.70
2018-03-17T15:10:57.004Z,-2.60
2018-03-17T15:13:23.018Z,-2.40
2018-03-17T15:15:48.969Z,-2.40
2018-03-17T15:18:14.995Z,-2.30
2018-03-17T15:20:40.951Z,-2.50
2018-03-17T15:23:06.940Z,-2.60
2018-03-17T15:25:32.884Z,-2.70
2018-03-17T15:27:58.920Z,-2.80
2018-03-17T15:30:24.869Z,-2.80
2018-03-17T15:32:50.945Z,-2.70
2018-03-17T15:35:16.932Z,-2.80
2018-03-17T15:37:42.905Z,-2.90
2018-03-17T15:40:08.897Z,-2.70
2018-03-17T15:42:34.892Z,-2.60
2018-03-17T15:45:00.878Z,-2.50
2018-03-17T15:47:26.829Z,-2.80
2018-03-17T15:49:52.801Z,-2.80
2018-03-17T15:52:19.549Z,-2.80
2018-03-17T15:54:45.557Z,-2.80
2018-03-17T15:57:11.541Z,-2.70
2018-03-17T15:59:37.533Z,-2.50
2018-03-17T16:02:03.492Z,-2.70
2018-03-17T16:04:30.309Z,-2.70
2018-03-17T16:06:56.288Z,-2.70
2018-03-17T16:09:22.246Z,-2.70
2018-03-17T16:11:48.233Z,-2.80
2018-03-17T16:14:14.289Z,-2.60
2018-03-17T16:16:40.984Z,-2.80
2018-03-17T16:19:06.924Z,-2.80
2018-03-17T16:21:32.908Z,-2.80
2018-03-17T16:23:58.893Z,-2.90
2018-03-17T16:26:24.908Z,-2.70
2018-03-17T16:28:51.678Z,-2.80
2018-03-17T16:31:17.688Z,-2.80
2018-03-17T16:33:43.824Z,-2.80
2018-03-17T16:36:10.587Z,-2.80
2018-03-17T16:38:37.315Z,-2.70
2018-03-17T16:41:03.293Z,-2.70
2018-03-17T16:43:30.121Z,-3.00
2018-03-17T16:45:56.115Z,-3.00
2018-03-17T16:48:22.065Z,-2.90
2018-03-17T16:50:48.045Z,-2.80
2018-03-17T16:53:14.782Z,-2.90
2018-03-17T16:55:40.755Z,-2.90
2018-03-17T16:58:06.731Z,-2.80
2018-03-17T17:00:32.709Z,-2.70
2018-03-17T17:02:58.681Z,-2.80
2018-03-17T17:05:24.703Z,-2.70
2018-03-17T17:07:50.649Z,-2.70
2018-03-17T17:10:16.629Z,-2.70
2018-03-17T17:12:42.673Z,-2.60
2018-03-17T17:15:08.612Z,-2.80
2018-03-17T17:17:34.593Z,-2.80
2018-03-17T17:20:00.572Z,-2.80
2018-03-17T17:22:26.516Z,-2.90
2018-03-17T17:24:52.449Z,-2.80
2018-03-17T17:27:18.425Z,-2.90
2018-03-17T17:29:44.490Z,-2.90
2018-03-17T17:32:10.488Z,-2.90
2018-03-17T17:34:36.466Z,-2.90
2018-03-17T17:37:02.413Z,-2.80
2018-03-17T17:39:28.389Z,-3.00
2018-03-17T17:41:55.140Z,-2.90
2018-03-17T17:44:21.817Z,-3.00
2018-03-17T17:46:47.769Z,-3.00
2018-03-17T17:49:13.809Z,-3.00
2018-03-17T17:51:39.778Z,-2.80
2018-03-17T17:54:05.747Z,-2.80
2018-03-17T17:56:31.741Z,-3.00
2018-03-17T17:58:57.697Z,-2.90
2018-03-17T18:01:24.480Z,-2.90
2018-03-17T18:03:50.468Z,-2.90
2018-03-17T18:06:16.525Z,-2.70
2018-03-17T18:08:43.267Z,-2.80
2018-03-17T18:11:09.268Z,-2.80
2018-03-17T18:13:35.277Z,-2.70
2018-03-17T18:16:01.229Z,-2.90
2018-03-17T18:18:27.185Z,-2.80
2018-03-17T18:20:53.168Z,-2.80
2018-03-17T18:23:19.198Z,-2.90
2018-03-17T18:25:46.035Z,-2.90
2018-03-17T18:28:12.862Z,-3.10
2018-03-17T18:30:38.845Z,-3.10
2018-03-17T18:33:05.577Z,-3.10
2018-03-17T18:35:31.532Z,-3.10
2018-03-17T18:37:58.257Z,-3.00
2018-03-17T18:40:24.196Z,-3.10
2018-03-17T18:42:50.147Z,-2.80
2018-03-17T18:45:16.234Z,-2.90
2018-03-17T18:47:42.283Z,-2.90
2018-03-17T18:50:08.258Z,-3.00
2018-03-17T18:52:34.212Z,-2.90
2018-03-17T18:55:00.949Z,-3.00
2018-03-17T18:57:26.976Z,-3.00
2018-03-17T18:59:53.797Z,-3.00
2018-03-17T19:02:19.800Z,-3.00
2018-03-17T19:04:45.760Z,-3.00
2018-03-17T19:07:11.803Z,-2.90
2018-03-17T19:09:37.811Z,-2.80
2018-03-17T19:12:04.616Z,-3.10
2018-03-17T19:14:30.589Z,-3.10
2018-03-17T19:16:57.348Z,-3.10
2018-03-17T19:19:24.087Z,-3.10
2018-03-17T19:21:50.073Z,-3.10
2018-03-17T19:24:16.057Z,-3.10
2018-03-17T19:26:42.340Z,-2.90
2018-03-17T19:29:08.317Z,-2.80
2018-03-17T19:31:34.264Z,-2.80
2018-03-17T19:34:00.973Z,-2.90
2018-03-17T19:36:26.957Z,-2.90
2018-03-17T19:38:52.910Z,-3.00
2018-03-17T19:41:19.652Z,-2.90
2018-03-17T19:43:45.661Z,-2.90
2018-03-17T19:46:11.689Z,-2.80
2018-03-17T19:48:37.652Z,-2.80
2018-03-17T19:51:03.642Z,-2.90
2018-03-17T19:53:29.614Z,-3.00
2018-03-17T19:55:55.607Z,-2.80
2018-03-17T19:58:21.548Z,-2.60
2018-03-17T20:00:47.529Z,-2.60
2018-03-17T20:03:13.565Z,-2.70
2018-03-17T20:05:39.529Z,-2.80
2018-03-17T20:08:05.549Z,-3.00
2018-03-17T20:10:31.541Z,-3.00
2018-03-17T20:12:57.523Z,-3.10
2018-03-17T20:15:23.476Z,-3.00
2018-03-17T20:17:49.493Z,-3.00
2018-03-17T20:20:15.473Z,-3.00
2018-03-17T20:22:41.480Z,-3.10
2018-03-17T20:25:08.935Z,-3.20
2018-03-17T20:27:34.941Z,-3.20
2018-03-17T20:30:00.923Z,-3.10
2018-03-17T20:32:26.952Z,-3.20
2018-03-17T20:34:52.929Z,-3.30
2018-03-17T20:37:18.950Z,-3.30
2018-03-17T20:39:44.897Z,-3.20
2018-03-17T20:42:10.913Z,-3.10
2018-03-17T20:44:37.645Z,-3.10
2018-03-17T20:47:03.669Z,-3.10
2018-03-17T20:49:29.624Z,-3.20
2018-03-17T20:51:55.590Z,-3.10
2018-03-17T20:54:22.425Z,-3.10
2018-03-17T20:56:48.416Z,-3.10
2018-03-17T20:59:14.460Z,-3.20
2018-03-17T21:01:40.458Z,-3.30
2018-03-17T21:04:06.482Z,-3.10
2018-03-17T21:06:33.245Z,-3.00
2018-03-17T21:09:00.065Z,-2.90
2018-03-17T21:11:26.027Z,-2.90
2018-03-17T21:13:52.705Z,-2.80
2018-03-17T21:16:18.731Z,-2.80
2018-03-17T21:18:44.728Z,-3.10
2018-03-17T21:21:10.750Z,-3.00
2018-03-17T21:23:36.796Z,-3.00
2018-03-17T21:26:02.791Z,-3.10
2018-03-17T21:28:28.820Z,-3.20
2018-03-17T21:30:54.889Z,-2.90
2018-03-17T21:33:20.853Z,-3.00
2018-03-17T21:35:46.804Z,-3.00
2018-03-17T21:38:13.566Z,-3.00
2018-03-17T21:40:40.261Z,-2.90
2018-03-17T21:43:06.276Z,-3.00
2018-03-17T21:45:32.289Z,-2.90
2018-03-17T21:47:59.018Z,-2.90
2018-03-17T21:50:24.998Z,-2.90
2018-03-17T21:52:50.997Z,-3.10
2018-03-17T21:55:16.936Z,-3.10
2018-03-17T21:57:42.961Z,-3.00
2018-03-17T22:00:10.461Z,-3.10
2018-03-17T22:02:37.144Z,-3.00
2018-03-17T22:05:03.148Z,-3.00
2018-03-17T22:07:30.001Z,-3.20
2018-03-17T22:10:11.739Z,-3.10
2018-03-17T22:12:37.730Z,-3.20
2018-03-17T22:15:03.726Z,-3.20
2018-03-17T22:17:29.741Z,-3.20
2018-03-17T22:19:55.698Z,-3.00
2018-03-17T22:22:21.639Z,-3.10
2018-03-17T22:24:47.608Z,-3.00
2018-03-17T22:27:13.575Z,-2.90
2018-03-17T22:29:39.594Z,-3.00
2018-03-17T22:32:06.343Z,-3.10
2018-03-17T22:34:33.093Z,-3.00
2018-03-17T22:36:59.829Z,-2.90
2018-03-17T22:39:26.696Z,-3.10
2018-03-17T22:41:52.672Z,-3.00
2018-03-17T22:44:18.669Z,-3.10
2018-03-17T22:46:44.688Z,-3.20
2018-03-17T22:49:10.649Z,-3.00
2018-03-17T22:51:37.361Z,-3.10
2018-03-17T22:54:03.341Z,-3.10
2018-03-17T22:56:30.053Z,-2.90
2018-03-17T22:58:56.038Z,-2.90
2018-03-17T23:01:22.815Z,-2.90
2018-03-17T23:03:48.753Z,-2.90
2018-03-17T23:06:14.821Z,-3.10
2018-03-17T23:08:41.703Z,-3.20
2018-03-17T23:11:07.668Z,-3.20
2018-03-17T23:13:33.646Z,-3.30
2018-03-17T23:15:59.673Z,-3.20
2018-03-17T23:18:25.620Z,-3.20
2018-03-17T23:20:51.643Z,-3.20
2018-03-17T23:23:17.600Z,-3.20
2018-03-17T23:25:43.637Z,-3.10
2018-03-17T23:28:09.629Z,-3.30
2018-03-17T23:30:35.653Z,-3.20
2018-03-17T23:33:01.605Z,-3.30
2018-03-17T23:35:27.597Z,-3.10
2018-03-17T23:37:53.544Z,-3.10
2018-03-17T23:40:20.289Z,-3.10
2018-03-17T23:42:46.269Z,-3.10
2018-03-17T23:45:12.257Z,-3.00
2018-03-17T23:47:38.253Z,-3.10
2018-03-17T23:50:04.254Z,-3.10
2018-03-17T23:52:30.949Z,-3.30
2018-03-17T23:54:56.921Z,-3.30
2018-03-17T23:57:22.938Z,-3.40
2018-03-17T23:59:48.948Z,-3.40
